Time;durP1;ratioP1;P1;durP2;ratioP2;P2;SDS_P1;SDS_P2;PMS_P1;PMS_P2;Temp;Humidity;BMP_temperature;BMP_pressure;BME280_temperature;BME280_humidity;BME280_pressure;Samples;Min_cycle;Max_cycle;Signal;HPM_P1;HPM_P2
2021/11/13 00:00:31;;;;;;;;;;;;;;;14.77;74.29;100537.47;1044338;28;768;-60
2021/11/13 00:01:21;;;;;;;;;;;;;;;14.81;73.83;100535.38;1044492;28;688;-60
2021/11/13 00:02:11;;;;;;;;;;;;;;;14.80;73.52;100539.06;1047429;28;1489;-60
2021/11/13 00:03:02;;;;;;;;;;;;;;;14.79;74.04;100535.53;1048716;28;812;-60
2021/11/13 00:03:52;;;;;;;;;;;;;;;14.77;74.38;100540.16;1047893;28;1751;-60
2021/11/13 00:04:43;;;;;;;;;;;;;;;14.76;73.93;100535.78;1048836;28;642;-60
2021/11/13 00:05:33;;;;;;;;;;;;;;;14.78;73.63;100541.88;1048663;28;622;-60
2021/11/13 00:06:23;;;;;;;;;;;;;;;14.77;73.88;100536.63;1048817;28;755;-60
2021/11/13 00:07:14;;;;;;;;;;;;;;;14.77;73.57;100536.63;1048570;28;740;-60
2021/11/13 00:08:04;;;;;;;;;;;;;;;14.77;73.59;100529.44;1048691;28;842;-58
2021/11/13 00:08:55;;;;;;;;;;;;;;;14.77;73.46;100524.06;1048759;28;677;-59
2021/11/13 00:09:45;;;;;;;;;;;;;;;14.77;73.64;100531.28;1048593;28;799;-59
2021/11/13 00:10:35;;;;;;;;;;;;;;;14.78;73.37;100530.28;1048720;28;852;-59
2021/11/13 00:11:26;;;;;;;;;;;;;;;14.76;74.31;100530.41;1048541;28;1910;-59
2021/11/13 00:12:16;;;;;;;;;;;;;;;14.76;74.16;100521.53;1048584;28;906;-59
2021/11/13 00:13:09;;;;;;;;;;;;;;;14.76;73.94;100519.69;1048814;28;779;-59
2021/11/13 00:14:02;;;;;;;;;;;;;;;14.75;73.74;100528.72;1048687;28;685;-59
2021/11/13 00:14:52;;;;;;;;;;;;;;;14.75;73.51;100528.72;1048802;28;785;-59
2021/11/13 00:15:43;;;;;;;;;;;;;;;14.74;74.64;100523.47;1049301;28;681;-59
2021/11/13 00:16:33;;;;;;;;;;;;;;;14.74;73.62;100518.97;1048621;28;846;-59
2021/11/13 00:17:24;;;;;;;;;;;;;;;14.75;73.96;100514.44;1048589;28;1776;-59
2021/11/13 00:18:15;;;;;;;;;;;;;;;14.75;73.48;100514.44;1048098;28;679;-59
2021/11/13 00:19:06;;;;;;;;;;;;;;;14.73;74.11;100513.72;1048299;28;721;-60
2021/11/13 00:19:56;;;;;;;;;;;;;;;14.73;73.71;100514.59;1048730;28;767;-60
2021/11/13 00:20:48;;;;;;;;;;;;;;;14.73;74.53;100519.94;1048749;28;928;-60
2021/11/13 00:21:39;;;;;;;;;;;;;;;14.73;73.82;100514.59;1047948;28;630;-60
2021/11/13 00:22:30;;;;;;;;;;;;;;;14.74;73.60;100516.28;1048300;28;657;-60
2021/11/13 00:23:21;;;;;;;;;;;;;;;14.74;73.63;100510.91;1048026;28;763;-60
2021/11/13 00:24:12;;;;;;;;;;;;;;;14.74;74.23;100504.72;1048161;28;691;-60
2021/11/13 00:25:02;;;;;;;;;;;;;;;14.73;74.20;100511.91;1047680;28;915;-60
2021/11/13 00:25:53;;;;;;;;;;;;;;;14.72;74.27;100512.88;1048519;28;693;-60
2021/11/13 00:26:43;;;;;;;;;;;;;;;14.71;73.82;100521.91;1048215;28;661;-60
2021/11/13 00:27:34;;;;;;;;;;;;;;;14.71;74.35;100508.50;1048158;28;1092;-60
2021/11/13 00:28:24;;;;;;;;;;;;;;;14.70;73.71;100509.47;1048666;28;772;-59
2021/11/13 00:29:15;;;;;;;;;;;;;;;14.70;74.38;100517.53;1048188;28;735;-60
2021/11/13 00:30:05;;;;;;;;;;;;;;;14.70;73.91;100509.47;1048631;28;720;-60
2021/11/13 00:30:55;;;;;;;;;;;;;;;14.71;73.97;100513.00;1048172;28;771;-60
2021/11/13 00:31:46;;;;;;;;;;;;;;;14.68;74.37;100508.78;1051833;28;1889;-60
2021/11/13 00:32:36;;;;;;;;;;;;;;;14.69;74.40;100505.09;1052147;28;693;-59
2021/11/13 00:33:27;;;;;;;;;;;;;;;14.71;74.11;100513.00;1052029;28;917;-60
2021/11/13 00:34:17;;;;;;;;;;;;;;;14.70;74.42;100506.81;1052169;28;672;-60
2021/11/13 00:35:07;;;;;;;;;;;;;;;14.71;73.50;100504.97;1052276;28;824;-60
2021/11/13 00:35:58;;;;;;;;;;;;;;;14.69;73.65;100497.06;1051844;28;816;-60
2021/11/13 00:36:48;;;;;;;;;;;;;;;14.69;73.83;100505.09;1052116;28;752;-60
2021/11/13 00:37:39;;;;;;;;;;;;;;;14.69;74.13;100502.41;1052149;28;864;-59
2021/11/13 00:38:29;;;;;;;;;;;;;;;14.68;74.25;100492.72;1052004;28;694;-59
2021/11/13 00:39:19;;;;;;;;;;;;;;;14.68;74.47;100503.44;1052251;28;929;-60
2021/11/13 00:40:10;;;;;;;;;;;;;;;14.68;74.29;100495.38;1051938;28;679;-59
2021/11/13 00:41:00;;;;;;;;;;;;;;;14.69;73.70;100491.69;1052184;28;757;-59
2021/11/13 00:41:51;;;;;;;;;;;;;;;14.68;74.48;100486.50;1052110;28;975;-60
2021/11/13 00:42:42;;;;;;;;;;;;;;;14.69;74.13;100496.25;1051944;28;1176;-60
2021/11/13 00:43:33;;;;;;;;;;;;;;;14.69;73.74;100496.25;1052427;28;821;-60
2021/11/13 00:44:23;;;;;;;;;;;;;;;14.69;73.93;100498.91;1051985;28;621;-60
2021/11/13 00:45:13;;;;;;;;;;;;;;;14.67;74.18;100491.00;1050011;28;1828;-60
2021/11/13 00:46:05;;;;;;;;;;;;;;;14.68;73.88;100486.50;1048414;28;1153;-60
2021/11/13 00:46:55;;;;;;;;;;;;;;;14.68;74.20;100490.03;1048577;28;1191;-60
2021/11/13 00:47:46;;;;;;;;;;;;;;;14.68;74.12;100491.84;1048273;28;853;-60
2021/11/13 00:48:36;;;;;;;;;;;;;;;14.68;74.24;100487.34;1048030;28;754;-59
2021/11/13 00:49:27;;;;;;;;;;;;;;;14.66;73.86;100473.22;1048196;28;709;-60
2021/11/13 00:50:17;;;;;;;;;;;;;;;14.65;74.04;100482.25;1049104;28;841;-60
2021/11/13 00:51:07;;;;;;;;;;;;;;;14.65;74.15;100484.91;1048060;28;779;-60
2021/11/13 00:51:58;;;;;;;;;;;;;;;14.65;73.68;100484.06;1048197;28;867;-60
2021/11/13 00:52:48;;;;;;;;;;;;;;;14.65;74.11;100479.56;1047935;28;629;-60
2021/11/13 00:53:39;;;;;;;;;;;;;;;14.66;73.71;100472.38;1048163;28;706;-59
2021/11/13 00:54:30;;;;;;;;;;;;;;;14.66;74.26;100477.72;1047912;28;850;-60
2021/11/13 00:55:20;;;;;;;;;;;;;;;14.66;74.28;100478.56;1048208;28;736;-60
2021/11/13 00:56:11;;;;;;;;;;;;;;;14.65;73.76;100487.59;1047868;28;866;-59
2021/11/13 00:57:01;;;;;;;;;;;;;;;14.65;74.58;100481.38;1048613;28;735;-59
2021/11/13 00:57:52;;;;;;;;;;;;;;;14.64;73.78;100477.84;1048928;28;716;-59
2021/11/13 00:58:42;;;;;;;;;;;;;;;14.65;73.93;100484.91;1048645;28;1922;-59
2021/11/13 00:59:34;;;;;;;;;;;;;;;14.65;74.35;100479.56;1045076;28;672;-59
2021/11/13 01:00:24;;;;;;;;;;;;;;;14.65;73.73;100482.25;1045448;28;875;-59
2021/11/13 01:01:14;;;;;;;;;;;;;;;14.65;74.65;100482.25;1049038;28;697;-59
2021/11/13 01:02:05;;;;;;;;;;;;;;;14.64;74.60;100485.91;1049090;28;1378;-60
2021/11/13 01:02:55;;;;;;;;;;;;;;;14.63;74.35;100491.41;1049387;28;791;-60
2021/11/13 01:03:46;;;;;;;;;;;;;;;14.65;73.84;100484.91;1049389;28;647;-59
2021/11/13 01:04:36;;;;;;;;;;;;;;;14.64;74.04;100488.59;1049277;28;898;-59
2021/11/13 01:05:27;;;;;;;;;;;;;;;14.63;73.76;100484.19;1049600;28;645;-59
2021/11/13 01:06:18;;;;;;;;;;;;;;;14.64;73.37;100485.91;1049626;28;848;-59
2021/11/13 01:07:09;;;;;;;;;;;;;;;14.65;74.20;100482.25;1049904;28;768;-59
2021/11/13 01:08:00;;;;;;;;;;;;;;;14.64;74.06;100480.53;1049665;28;756;-60
2021/11/13 01:08:50;;;;;;;;;;;;;;;14.63;74.38;100484.19;1049763;28;891;-60
2021/11/13 01:09:41;;;;;;;;;;;;;;;14.64;73.50;100479.69;1049001;28;797;-59
2021/11/13 01:10:31;;;;;;;;;;;;;;;14.63;74.09;100484.19;1049936;28;666;-59
2021/11/13 01:11:21;;;;;;;;;;;;;;;14.64;74.65;100474.31;1048816;28;1967;-59
2021/11/13 01:12:12;;;;;;;;;;;;;;;14.63;74.02;100468.13;1049230;28;1414;-59
2021/11/13 01:13:02;;;;;;;;;;;;;;;14.63;73.61;100473.47;1045113;28;1871;-59
2021/11/13 01:13:53;;;;;;;;;;;;;;;14.63;74.36;100478.84;1045808;28;718;-59
2021/11/13 01:14:43;;;;;;;;;;;;;;;14.62;74.41;100470.94;1045681;28;773;-59
2021/11/13 01:15:33;;;;;;;;;;;;;;;14.62;74.07;100468.25;1045685;28;644;-59
2021/11/13 01:16:26;;;;;;;;;;;;;;;14.61;74.49;100474.59;1045563;28;634;-59
2021/11/13 01:17:16;;;;;;;;;;;;;;;14.62;74.44;100466.41;1046223;28;818;-59
2021/11/13 01:18:07;;;;;;;;;;;;;;;14.63;74.47;100467.25;1045711;28;678;-59
2021/11/13 01:18:57;;;;;;;;;;;;;;;14.62;73.91;100469.09;1045447;28;727;-60
2021/11/13 01:19:48;;;;;;;;;;;;;;;14.63;74.60;100472.63;1045558;28;788;-59
2021/11/13 01:20:38;;;;;;;;;;;;;;;14.61;74.15;100470.06;1045589;28;625;-59
2021/11/13 01:21:28;;;;;;;;;;;;;;;14.61;74.38;100475.44;1045636;28;903;-60
2021/11/13 01:22:19;;;;;;;;;;;;;;;14.61;73.94;100467.41;1045685;28;708;-59
2021/11/13 01:23:09;;;;;;;;;;;;;;;14.62;73.80;100476.28;1045584;28;914;-59
2021/11/13 01:24:00;;;;;;;;;;;;;;;14.61;73.59;100467.41;1045559;28;766;-59
2021/11/13 01:24:51;;;;;;;;;;;;;;;14.61;73.92;100475.44;1045544;28;775;-59
2021/11/13 01:25:41;;;;;;;;;;;;;;;14.61;74.40;100478.13;1046307;28;778;-59
2021/11/13 01:26:33;;;;;;;;;;;;;;;14.59;74.09;100478.25;1045663;28;629;-59
2021/11/13 01:27:23;;;;;;;;;;;;;;;14.58;74.54;100471.19;1049660;28;987;-60
2021/11/13 01:28:13;;;;;;;;;;;;;;;14.59;73.82;100466.69;1049359;28;731;-60
2021/11/13 01:29:04;;;;;;;;;;;;;;;14.58;73.75;100465.81;1049367;28;723;-60
2021/11/13 01:29:54;;;;;;;;;;;;;;;14.59;74.38;100472.03;1049164;28;772;-60
2021/11/13 01:30:45;;;;;;;;;;;;;;;14.59;74.26;100475.56;1049109;28;724;-60
2021/11/13 01:31:35;;;;;;;;;;;;;;;14.57;74.80;100472.16;1048946;28;1971;-60
2021/11/13 01:32:26;;;;;;;;;;;;;;;14.57;73.83;100469.50;1050417;28;629;-59
2021/11/13 01:33:16;;;;;;;;;;;;;;;14.58;74.38;100478.38;1049098;28;802;-59
2021/11/13 01:34:06;;;;;;;;;;;;;;;14.59;73.79;100474.72;1048794;28;661;-60
2021/11/13 01:34:57;;;;;;;;;;;;;;;14.59;74.16;100472.88;1049079;28;813;-59
2021/11/13 01:35:47;;;;;;;;;;;;;;;14.59;74.72;100472.03;1049123;28;932;-60
2021/11/13 01:36:38;;;;;;;;;;;;;;;14.59;74.59;100474.72;1049235;28;697;-60
2021/11/13 01:37:28;;;;;;;;;;;;;;;14.59;74.40;100469.34;1049127;28;642;-59
2021/11/13 01:38:18;;;;;;;;;;;;;;;14.59;74.34;100467.53;1048891;28;749;-59
2021/11/13 01:39:09;;;;;;;;;;;;;;;14.60;73.90;100471.06;1049372;28;723;-59
2021/11/13 01:39:59;;;;;;;;;;;;;;;14.58;74.03;100471.19;1049146;28;866;-59
2021/11/13 01:40:50;;;;;;;;;;;;;;;14.58;74.34;100462.28;1048669;28;1876;-60
2021/11/13 01:41:40;;;;;;;;;;;;;;;14.58;74.02;100467.66;1045523;28;678;-59
2021/11/13 01:42:31;;;;;;;;;;;;;;;14.56;73.92;100470.47;1045532;28;983;-60
2021/11/13 01:43:21;;;;;;;;;;;;;;;14.58;74.12;100468.50;1045573;28;688;-60
2021/11/13 01:44:11;;;;;;;;;;;;;;;14.58;74.43;100470.34;1045566;28;809;-60
2021/11/13 01:45:02;;;;;;;;;;;;;;;14.57;74.56;100466.81;1045667;28;705;-60
2021/11/13 01:45:52;;;;;;;;;;;;;;;14.57;73.47;100469.50;1045507;28;712;-60
2021/11/13 01:46:43;;;;;;;;;;;;;;;14.56;74.14;100472.31;1048953;28;1624;-60
2021/11/13 01:47:33;;;;;;;;;;;;;;;14.57;74.28;100463.28;1048214;28;792;-60
2021/11/13 01:48:23;;;;;;;;;;;;;;;14.57;74.42;100471.31;1048377;28;854;-60
2021/11/13 01:49:14;;;;;;;;;;;;;;;14.57;73.47;100466.81;1048376;28;1785;-60
2021/11/13 01:50:04;;;;;;;;;;;;;;;14.58;74.17;100464.97;1049279;28;906;-60
2021/11/13 01:50:55;;;;;;;;;;;;;;;14.56;74.49;100462.44;1049864;28;793;-60
2021/11/13 01:51:47;;;;;;;;;;;;;;;14.58;74.06;100463.16;1049278;28;672;-60
2021/11/13 01:52:37;;;;;;;;;;;;;;;14.58;73.28;100465.81;1049027;28;840;-60
2021/11/13 01:53:28;;;;;;;;;;;;;;;14.58;73.96;100465.81;1048692;28;706;-60
2021/11/13 01:54:19;;;;;;;;;;;;;;;14.59;74.43;100466.69;1049287;28;760;-59
2021/11/13 01:55:09;;;;;;;;;;;;;;;14.58;74.50;100464.97;1046860;28;1868;-60
2021/11/13 01:56:00;;;;;;;;;;;;;;;14.57;74.28;100463.28;1045200;28;745;-60
2021/11/13 01:56:52;;;;;;;;;;;;;;;14.58;74.21;100462.28;1044895;28;948;-60
2021/11/13 01:57:48;;;;;;;;;;;;;;;14.58;73.70;100464.97;1044925;28;732;-60
2021/11/13 01:58:39;;;;;;;;;;;;;;;14.58;73.92;100464.97;1045244;28;753;-60
2021/11/13 01:59:29;;;;;;;;;;;;;;;14.58;74.63;100459.63;1045528;28;693;-60
2021/11/13 02:00:20;;;;;;;;;;;;;;;14.58;74.18;100464.97;1045632;28;630;-60
2021/11/13 02:01:10;;;;;;;;;;;;;;;14.57;74.14;100460.59;1045522;28;1066;-60
2021/11/13 02:02:01;;;;;;;;;;;;;;;14.56;74.22;100461.56;1045292;28;1364;-60
2021/11/13 02:02:51;;;;;;;;;;;;;;;14.57;74.09;100463.28;1044140;28;751;-60
2021/11/13 02:03:41;;;;;;;;;;;;;;;14.57;74.07;100457.91;1044449;28;806;-60
2021/11/13 02:04:32;;;;;;;;;;;;;;;14.55;73.88;100454.50;1044702;28;749;-59
2021/11/13 02:05:22;;;;;;;;;;;;;;;14.56;74.14;100454.38;1044384;28;881;-60
2021/11/13 02:06:13;;;;;;;;;;;;;;;14.57;74.29;100457.91;1044554;28;727;-60
2021/11/13 02:07:03;;;;;;;;;;;;;;;14.55;74.23;100454.50;1044729;28;1847;-59
2021/11/13 02:07:54;;;;;;;;;;;;;;;14.56;74.61;100461.56;1044519;28;681;-59
2021/11/13 02:08:44;;;;;;;;;;;;;;;14.55;74.17;100451.84;1043891;28;769;-59
2021/11/13 02:09:35;;;;;;;;;;;;;;;14.55;73.76;100449.16;1044427;28;780;-59
2021/11/13 02:10:25;;;;;;;;;;;;;;;14.55;74.03;100454.50;1043634;28;660;-60
2021/11/13 02:11:15;;;;;;;;;;;;;;;14.55;74.09;100451.84;1044804;28;1918;-59
2021/11/13 02:12:06;;;;;;;;;;;;;;;14.55;74.02;100454.50;1045103;28;779;-59
2021/11/13 02:12:56;;;;;;;;;;;;;;;14.55;73.98;100455.38;1044904;28;709;-59
2021/11/13 02:13:47;;;;;;;;;;;;;;;14.56;73.87;100448.16;1044966;28;890;-59
2021/11/13 02:14:37;;;;;;;;;;;;;;;14.56;74.38;100456.22;1044911;28;610;-59
2021/11/13 02:15:28;;;;;;;;;;;;;;;14.56;74.46;100456.22;1044981;28;789;-59
2021/11/13 02:16:18;;;;;;;;;;;;;;;14.56;74.24;100453.53;1044808;28;836;-59
2021/11/13 02:17:08;;;;;;;;;;;;;;;14.55;74.68;100455.38;1044984;28;729;-60
2021/11/13 02:17:59;;;;;;;;;;;;;;;14.57;73.54;100453.41;1044992;28;720;-60
2021/11/13 02:18:49;;;;;;;;;;;;;;;14.57;74.41;100447.19;1044823;28;795;-60
2021/11/13 02:19:40;;;;;;;;;;;;;;;14.56;74.23;100448.16;1044959;28;908;-61
2021/11/13 02:20:31;;;;;;;;;;;;;;;14.55;74.77;100450.00;1045514;28;713;-60
2021/11/13 02:21:21;;;;;;;;;;;;;;;14.55;74.43;100455.38;1044990;28;1908;-61
2021/11/13 02:22:11;;;;;;;;;;;;;;;14.56;73.63;100450.84;1045466;28;699;-60
2021/11/13 02:23:02;;;;;;;;;;;;;;;14.57;74.50;100452.56;1045449;28;681;-60
2021/11/13 02:23:52;;;;;;;;;;;;;;;14.54;74.26;100452.81;1044708;28;845;-61
2021/11/13 02:24:43;;;;;;;;;;;;;;;14.53;74.06;100443.06;1044490;28;795;-60
2021/11/13 02:25:33;;;;;;;;;;;;;;;14.55;74.25;100441.97;1044905;28;630;-60
2021/11/13 02:26:25;;;;;;;;;;;;;;;14.55;73.94;100444.63;1045497;28;704;-60
2021/11/13 02:27:15;;;;;;;;;;;;;;;14.56;73.94;100442.81;1046012;28;1031;-60
2021/11/13 02:28:06;;;;;;;;;;;;;;;14.57;74.30;100441.81;1045402;28;886;-60
2021/11/13 02:28:56;;;;;;;;;;;;;;;14.56;73.74;100443.66;1046637;28;1856;-61
2021/11/13 02:29:47;;;;;;;;;;;;;;;14.55;74.53;100444.63;1044935;28;821;-61
2021/11/13 02:30:37;;;;;;;;;;;;;;;14.54;74.16;100442.09;1045529;28;625;-60
2021/11/13 02:31:27;;;;;;;;;;;;;;;14.53;74.04;100438.56;1045342;28;1893;-60
2021/11/13 02:32:18;;;;;;;;;;;;;;;14.55;73.77;100436.59;1045461;28;775;-60
2021/11/13 02:33:08;;;;;;;;;;;;;;;14.55;73.90;100433.91;1045360;28;777;-61
2021/11/13 02:33:59;;;;;;;;;;;;;;;14.54;74.75;100442.09;1045436;28;720;-60
2021/11/13 02:34:49;;;;;;;;;;;;;;;14.53;74.61;100445.75;1045571;28;1964;-61
2021/11/13 02:35:39;;;;;;;;;;;;;;;14.52;74.37;100444.06;1049008;28;664;-60
2021/11/13 02:36:30;;;;;;;;;;;;;;;14.52;74.94;100438.69;1049003;28;932;-60
2021/11/13 02:37:21;;;;;;;;;;;;;;;14.53;74.66;100445.75;1048927;28;633;-60
2021/11/13 02:38:11;;;;;;;;;;;;;;;14.55;73.95;100446.47;1049491;28;704;-60
2021/11/13 02:39:02;;;;;;;;;;;;;;;14.54;74.16;100442.94;1049515;28;760;-60
2021/11/13 02:39:52;;;;;;;;;;;;;;;14.53;74.18;100432.34;1048816;28;602;-60
2021/11/13 02:40:43;;;;;;;;;;;;;;;14.54;73.87;100431.38;1048980;28;861;-60
2021/11/13 02:41:33;;;;;;;;;;;;;;;14.54;74.07;100442.94;1049507;28;661;-60
2021/11/13 02:42:24;;;;;;;;;;;;;;;14.55;74.83;100441.09;1048908;28;1500;-60
2021/11/13 02:43:15;;;;;;;;;;;;;;;14.54;74.19;100432.22;1049625;28;792;-60
2021/11/13 02:44:05;;;;;;;;;;;;;;;14.54;74.73;100437.56;1049469;28;786;-60
2021/11/13 02:44:56;;;;;;;;;;;;;;;14.53;74.41;100446.59;1048874;28;881;-60
2021/11/13 02:45:46;;;;;;;;;;;;;;;14.53;73.88;100443.91;1048858;28;719;-60
2021/11/13 02:46:36;;;;;;;;;;;;;;;14.54;73.88;100442.09;1041931;28;1686;-60
2021/11/13 02:47:27;;;;;;;;;;;;;;;14.54;74.01;100442.09;1041585;28;806;-61
2021/11/13 02:48:17;;;;;;;;;;;;;;;14.53;74.13;100443.06;1045476;28;744;-60
2021/11/13 02:49:08;;;;;;;;;;;;;;;14.53;74.52;100435.88;1047342;28;1852;-60
2021/11/13 02:49:58;;;;;;;;;;;;;;;14.53;74.50;100440.38;1048763;28;812;-60
2021/11/13 02:50:49;;;;;;;;;;;;;;;14.53;74.58;100440.38;1048955;28;979;-60
2021/11/13 02:51:39;;;;;;;;;;;;;;;14.53;74.11;100435.03;1049004;28;1902;-59
2021/11/13 02:52:29;;;;;;;;;;;;;;;14.53;74.13;100438.56;1048902;28;673;-59
2021/11/13 02:53:20;;;;;;;;;;;;;;;14.53;74.42;100443.91;1049489;28;782;-60
2021/11/13 02:54:10;;;;;;;;;;;;;;;14.54;73.79;100445.63;1048762;28;799;-60
2021/11/13 02:55:01;;;;;;;;;;;;;;;14.54;74.19;100442.09;1048836;28;781;-60
2021/11/13 02:55:51;;;;;;;;;;;;;;;14.55;74.00;100443.78;1049064;28;784;-59
2021/11/13 02:56:41;;;;;;;;;;;;;;;14.56;74.13;100429.41;1048870;28;748;-60
2021/11/13 02:57:32;;;;;;;;;;;;;;;14.55;73.86;100433.91;1048936;28;1407;-60
2021/11/13 02:58:22;;;;;;;;;;;;;;;14.54;74.42;100431.38;1048798;28;700;-59
2021/11/13 02:59:13;;;;;;;;;;;;;;;14.54;73.86;100442.09;1048775;28;840;-60
2021/11/13 03:00:03;;;;;;;;;;;;;;;14.53;74.11;100441.25;1049022;28;782;-60
2021/11/13 03:00:53;;;;;;;;;;;;;;;14.54;74.57;100428.69;1048799;28;707;-60
2021/11/13 03:01:44;;;;;;;;;;;;;;;14.54;73.96;100436.72;1048923;28;685;-59
2021/11/13 03:02:34;;;;;;;;;;;;;;;14.54;73.94;100432.22;1048794;28;622;-59
2021/11/13 03:03:25;;;;;;;;;;;;;;;14.55;74.39;100433.06;1045251;28;1796;-60
2021/11/13 03:04:15;;;;;;;;;;;;;;;14.53;74.10;100435.88;1044641;28;673;-59
2021/11/13 03:05:06;;;;;;;;;;;;;;;14.52;74.21;100444.91;1044818;28;740;-60
2021/11/13 03:05:56;;;;;;;;;;;;;;;14.53;74.27;100445.75;1045851;28;719;-60
2021/11/13 03:06:47;;;;;;;;;;;;;;;14.50;74.73;100440.69;1045928;28;651;-59
2021/11/13 03:07:37;;;;;;;;;;;;;;;14.52;73.89;100438.69;1045196;28;839;-59
2021/11/13 03:08:27;;;;;;;;;;;;;;;14.50;74.29;100446.06;1044735;28;791;-59
2021/11/13 03:09:18;;;;;;;;;;;;;;;14.52;74.55;100438.69;1044715;28;766;-59
2021/11/13 03:10:08;;;;;;;;;;;;;;;14.53;74.08;100443.06;1045820;28;802;-59
2021/11/13 03:10:59;;;;;;;;;;;;;;;14.52;74.21;100438.69;1045952;28;763;-59
2021/11/13 03:11:49;;;;;;;;;;;;;;;14.51;73.97;100440.53;1045180;28;844;-60
2021/11/13 03:12:40;;;;;;;;;;;;;;;14.52;73.87;100442.22;1044660;28;1108;-59
2021/11/13 03:13:30;;;;;;;;;;;;;;;14.51;74.36;100443.19;1044860;28;1018;-59
2021/11/13 03:14:20;;;;;;;;;;;;;;;14.52;73.69;100444.06;1045872;28;615;-58
2021/11/13 03:15:11;;;;;;;;;;;;;;;14.52;74.62;100447.59;1045911;28;707;-59
2021/11/13 03:16:01;;;;;;;;;;;;;;;14.51;74.49;100445.88;1045825;28;838;-59
2021/11/13 03:16:52;;;;;;;;;;;;;;;14.52;74.68;100452.94;1044799;28;735;-59
2021/11/13 03:17:42;;;;;;;;;;;;;;;14.53;74.10;100448.44;1045910;28;984;-59
2021/11/13 03:18:32;;;;;;;;;;;;;;;14.52;73.96;100452.94;1045210;28;638;-59
2021/11/13 03:19:23;;;;;;;;;;;;;;;14.52;74.74;100441.38;1045103;28;2031;-60
2021/11/13 03:20:13;;;;;;;;;;;;;;;14.52;74.48;100449.41;1044293;28;826;-60
2021/11/13 03:21:07;;;;;;;;;;;;;;;14.51;74.90;100442.38;1044689;28;756;-59
2021/11/13 03:21:57;;;;;;;;;;;;;;;14.49;74.05;100441.66;1044540;28;835;-59
2021/11/13 03:22:48;;;;;;;;;;;;;;;14.48;74.40;100440.81;1044584;28;792;-60
2021/11/13 03:23:38;;;;;;;;;;;;;;;14.49;74.25;100444.34;1044666;28;804;-59
2021/11/13 03:24:28;;;;;;;;;;;;;;;14.50;74.11;100441.53;1044498;28;732;-59
2021/11/13 03:25:19;;;;;;;;;;;;;;;14.50;74.13;100443.38;1044789;28;718;-59
2021/11/13 03:26:09;;;;;;;;;;;;;;;14.50;74.95;100444.22;1044686;28;779;-60
2021/11/13 03:27:00;;;;;;;;;;;;;;;14.50;74.17;100438.00;1044725;28;791;-60
2021/11/13 03:27:50;;;;;;;;;;;;;;;14.51;74.12;100437.84;1045068;28;731;-60
2021/11/13 03:28:41;;;;;;;;;;;;;;;14.50;74.54;100446.06;1044049;28;933;-59
2021/11/13 03:29:31;;;;;;;;;;;;;;;14.49;74.09;100436.31;1044488;28;650;-60
2021/11/13 03:30:21;;;;;;;;;;;;;;;14.50;74.12;100435.31;1044171;28;847;-60
2021/11/13 03:31:12;;;;;;;;;;;;;;;14.51;74.52;100439.69;1044316;28;1974;-60
2021/11/13 03:32:03;;;;;;;;;;;;;;;14.49;74.80;100437.16;1039584;28;721;-60
2021/11/13 03:32:53;;;;;;;;;;;;;;;14.48;73.93;100430.09;1041225;28;911;-60
2021/11/13 03:33:44;;;;;;;;;;;;;;;14.51;73.91;100437.03;1045863;28;665;-60
2021/11/13 03:34:34;;;;;;;;;;;;;;;14.50;74.90;100429.97;1045021;28;902;-60
2021/11/13 03:35:29;;;;;;;;;;;;;;;14.49;74.16;100430.94;1045292;28;802;-60
2021/11/13 03:36:21;;;;;;;;;;;;;;;14.48;74.71;100427.41;1045166;28;801;-60
2021/11/13 03:37:11;;;;;;;;;;;;;;;14.48;74.28;100427.41;1045304;28;780;-60
2021/11/13 03:38:01;;;;;;;;;;;;;;;14.49;74.84;100422.91;1045103;28;744;-60
2021/11/13 03:38:52;;;;;;;;;;;;;;;14.48;74.74;100424.72;1045104;28;875;-60
2021/11/13 03:39:43;;;;;;;;;;;;;;;14.47;74.31;100428.41;1049145;28;2085;-60
2021/11/13 03:40:33;;;;;;;;;;;;;;;14.49;74.52;100422.91;1048821;28;666;-60
2021/11/13 03:41:23;;;;;;;;;;;;;;;14.48;74.18;100421.19;1049387;28;861;-61
2021/11/13 03:42:14;;;;;;;;;;;;;;;14.48;74.59;100426.56;1048787;28;1371;-60
2021/11/13 03:43:04;;;;;;;;;;;;;;;14.48;74.36;100431.91;1048581;28;732;-60
2021/11/13 03:43:55;;;;;;;;;;;;;;;14.48;74.55;100437.28;1048825;28;807;-60
2021/11/13 03:44:45;;;;;;;;;;;;;;;14.48;74.23;100432.78;1048644;28;697;-60
2021/11/13 03:45:36;;;;;;;;;;;;;;;14.48;74.60;100427.41;1048436;28;1671;-60
2021/11/13 03:46:26;;;;;;;;;;;;;;;14.48;74.55;100431.91;1047342;28;1525;-61
2021/11/13 03:47:16;;;;;;;;;;;;;;;14.49;74.74;100433.63;1045099;28;821;-60
2021/11/13 03:48:07;;;;;;;;;;;;;;;14.49;74.85;100433.63;1039795;28;754;-60
2021/11/13 03:48:57;;;;;;;;;;;;;;;14.50;74.34;100438.00;1041339;28;766;-61
2021/11/13 03:49:48;;;;;;;;;;;;;;;14.50;74.14;100435.31;1045542;28;681;-60
2021/11/13 03:50:38;;;;;;;;;;;;;;;14.50;74.44;100438.00;1045232;28;931;-60
2021/11/13 03:51:29;;;;;;;;;;;;;;;14.48;74.03;100432.78;1045008;28;1968;-60
2021/11/13 03:52:19;;;;;;;;;;;;;;;14.47;74.85;100428.41;1045355;28;692;-60
2021/11/13 03:53:09;;;;;;;;;;;;;;;14.47;74.90;100435.59;1045265;28;727;-60
2021/11/13 03:54:00;;;;;;;;;;;;;;;14.47;75.01;100438.28;1045266;28;796;-61
2021/11/13 03:54:50;;;;;;;;;;;;;;;14.46;74.85;100440.09;1045771;28;779;-60
2021/11/13 03:55:41;;;;;;;;;;;;;;;14.47;74.67;100435.59;1045060;28;896;-60
2021/11/13 03:56:31;;;;;;;;;;;;;;;14.48;74.20;100432.78;1045291;28;645;-60
2021/11/13 03:57:21;;;;;;;;;;;;;;;14.48;74.13;100439.97;1045008;28;1410;-60
2021/11/13 03:58:12;;;;;;;;;;;;;;;14.47;74.60;100435.59;1045172;28;720;-60
2021/11/13 03:59:05;;;;;;;;;;;;;;;14.47;75.08;100435.59;1047582;28;1926;-60
2021/11/13 03:59:55;;;;;;;;;;;;;;;14.47;74.79;100436.44;1049180;28;969;-60
2021/11/13 04:00:46;;;;;;;;;;;;;;;14.47;74.51;100438.28;1048662;28;882;-60
2021/11/13 04:01:36;;;;;;;;;;;;;;;14.47;74.27;100436.44;1048915;28;681;-60
2021/11/13 04:02:26;;;;;;;;;;;;;;;14.46;74.42;100433.88;1048738;28;618;-60
2021/11/13 04:03:18;;;;;;;;;;;;;;;14.46;74.20;100433.88;1048814;28;749;-60
2021/11/13 04:04:08;;;;;;;;;;;;;;;14.46;74.92;100434.75;1049697;28;997;-61
2021/11/13 04:04:59;;;;;;;;;;;;;;;14.48;74.40;100434.59;1048801;28;823;-61
2021/11/13 04:05:49;;;;;;;;;;;;;;;14.47;74.83;100440.94;1048910;28;799;-60
2021/11/13 04:06:39;;;;;;;;;;;;;;;14.47;74.56;100441.81;1048603;28;692;-60
2021/11/13 04:07:30;;;;;;;;;;;;;;;14.47;74.08;100443.63;1049348;28;692;-60
2021/11/13 04:08:20;;;;;;;;;;;;;;;14.47;74.15;100439.13;1048629;28;869;-60
2021/11/13 04:09:11;;;;;;;;;;;;;;;14.47;74.70;100449.00;1048707;28;782;-60
2021/11/13 04:10:03;;;;;;;;;;;;;;;14.46;74.61;100445.47;1048854;28;733;-60
2021/11/13 04:10:54;;;;;;;;;;;;;;;14.47;74.58;100447.16;1049390;28;736;-60
2021/11/13 04:11:44;;;;;;;;;;;;;;;14.47;74.83;100451.66;1049733;28;1979;-60
2021/11/13 04:12:35;;;;;;;;;;;;;;;14.47;74.45;100449.00;1048607;28;1002;-60
2021/11/13 04:13:25;;;;;;;;;;;;;;;14.47;74.63;100446.31;1045175;28;645;-60
2021/11/13 04:14:15;;;;;;;;;;;;;;;14.48;74.37;100448.84;1043158;28;848;-60
2021/11/13 04:15:06;;;;;;;;;;;;;;;14.47;74.93;100451.66;1045713;28;693;-60
2021/11/13 04:15:56;;;;;;;;;;;;;;;14.47;74.81;100454.34;1045178;28;790;-60
2021/11/13 04:16:47;;;;;;;;;;;;;;;14.45;74.78;100449.13;1044444;28;795;-59
2021/11/13 04:17:37;;;;;;;;;;;;;;;14.46;74.05;100449.97;1044620;28;897;-59
2021/11/13 04:18:28;;;;;;;;;;;;;;;14.45;74.56;100445.59;1043255;28;942;-60
2021/11/13 04:19:18;;;;;;;;;;;;;;;14.45;74.79;100454.47;1045785;28;732;-59
2021/11/13 04:20:08;;;;;;;;;;;;;;;14.44;74.89;100447.44;1045858;28;754;-58
2021/11/13 04:20:59;;;;;;;;;;;;;;;14.45;74.59;100450.97;1044603;28;788;-59
2021/11/13 04:21:49;;;;;;;;;;;;;;;14.46;74.47;100455.34;1044746;28;746;-59
2021/11/13 04:22:40;;;;;;;;;;;;;;;14.45;75.08;100448.28;1044521;28;986;-59
2021/11/13 04:23:30;;;;;;;;;;;;;;;14.46;74.26;100452.66;1045708;28;643;-59
2021/11/13 04:24:20;;;;;;;;;;;;;;;14.45;74.34;100453.63;1045560;28;677;-59
2021/11/13 04:25:11;;;;;;;;;;;;;;;14.45;75.03;100453.63;1044667;28;781;-59
2021/11/13 04:26:01;;;;;;;;;;;;;;;14.45;75.04;100448.28;1044471;28;812;-58